Flight Track Log - Related Links

Times and Time Zones

All times are in EDT time to prevent confusion due to time zone crossing. See the JUS196 flight status page for this flight to view local times or setup timezone preferences in your user account.

Time Position Orientation Groundspeed Altitude Reporting Facility
EDT Latitude Longitude Course Direction KTS MPH feet Rate Location/Type
Mon 07:54:45 PM 42.2114 -83.5664 227° Southwest 171 197 2,500  Level FAA TRACON SMA TRACON (SMA)
Mon 07:55:05 PM 42.2014 -83.5808 227° Southwest 168 193 3,100 1,756 Climbing FAA TRACON SMA TRACON (SMA)
Mon 07:55:26 PM 42.1892 -83.5967 224° Southwest 166 191 3,700 1,500 Climbing FAA TRACON SMA TRACON (SMA)
Mon 07:55:45 PM 42.1786 -83.6108 225° Southwest 180 207 4,100 1,050 Climbing FAA TRACON SMA TRACON (SMA)
Mon 07:56:06 PM 42.1642 -83.6283 222° Southwest 228 262 4,400 1,286 Climbing FAA TRACON SMA TRACON (SMA)
Mon 07:56:27 PM 42.1450 -83.6486 218° Southwest 226 260 5,000 2,550 Climbing FAA TRACON SMA TRACON (SMA)
Mon 07:56:46 PM 42.1294 -83.6664 220° Southwest 237 273 6,100 3,474 Climbing FAA TRACON SMA TRACON (SMA)
Mon 07:57:05 PM 42.1136 -83.6836 219° Southwest 237 273 7,200 3,600 Climbing FAA TRACON SMA TRACON (SMA)
Mon 07:57:26 PM 42.0883 -83.6928 195° South 259 298 8,500 2,634 Climbing FAA TRACON SMA TRACON (SMA)
Mon 07:57:46 PM 42.0672 -83.6822 160° South 273 314 9,000 1,350 Climbing FAA TRACON SMA TRACON (SMA)
Mon 07:58:06 PM 42.0503 -83.6597 135° Southeast 286 329 9,400 1,800 Climbing FAA TRACON SMA TRACON (SMA)
Mon 07:58:26 PM 42.0392 -83.6214 111° Southeast 290 334 10,200 2,308 Climbing FAA TRACON SMA TRACON (SMA)
Mon 07:58:45 PM 42.0306 -83.5853 108° East 314 361 10,900 1,950 Climbing FAA TRACON SMA TRACON (SMA)
Mon 07:59:06 PM 42.0217 -83.5544 111° Southeast 319 367 11,500 1,857 Climbing FAA TRACON SMA TRACON (SMA)
Mon 07:59:27 PM 41.9961 -83.5253 140° Southeast 317 365 12,200 1,610 Climbing FAA TRACON SMA TRACON (SMA)
Mon 07:59:47 PM 41.9694 -83.5114 159° South 334 384 12,600 1,077 Climbing FAA TRACON SMA TRACON (SMA)
Mon 08:00:06 PM 41.9414 -83.4997 163° South 343 395 12,900 1,846 Climbing FAA TRACON SMA TRACON (SMA)
Mon 08:00:26 PM 41.9042 -83.4831 162° South 358 412 13,800 3,150 Climbing FAA TRACON SMA TRACON (SMA)
Mon 08:00:46 PM 41.8753 -83.4658 156° South 354 407 15,000 3,600 Climbing FAA TRACON SMA TRACON (SMA)
Mon 08:01:06 PM 41.8478 -83.4464 152° Southeast 368 423 16,200 3,750 Climbing FAA TRACON SMA TRACON (SMA)
Mon 08:01:26 PM 41.8136 -83.4242 154° Southeast 358 412 17,500 3,450 Climbing FAA TRACON SMA TRACON (SMA)
Mon 08:01:46 PM 41.7858 -83.4064 154° Southeast 358 412 18,500 3,000 Climbing FAA TRACON SMA TRACON (SMA)
Mon 08:02:06 PM 41.7581 -83.3900 156° South 355 409 19,500 3,150 Climbing FAA TRACON SMA TRACON (SMA)
Mon 08:02:26 PM 41.7239 -83.3692 156° South 354 407 20,600 2,550 Climbing FAA TRACON SMA TRACON (SMA)
Mon 08:02:46 PM 41.6964 -83.3522 155° Southeast 354 407 21,200 1,500 Climbing FAA TRACON SMA TRACON (SMA)
Mon 08:03:06 PM 41.6683 -83.3339 154° Southeast 360 414 21,600 1,650 Climbing FAA TRACON SMA TRACON (SMA)
Mon 08:03:26 PM 41.6294 -83.3200 165° South 375 432 22,300 1,800 Climbing FAA TRACON SMA TRACON (SMA)
Mon 08:03:46 PM 41.5981 -83.3122 170° South 376 433 22,800 1,500 Climbing FAA TRACON SMA TRACON (SMA)
Mon 08:04:06 PM 41.5664 -83.3131 181° South 371 427 23,300 1,800 Climbing FAA TRACON SMA TRACON (SMA)
Mon 08:04:26 PM 41.5267 -83.3219 190° South 372 428 24,000 1,200 Climbing FAA TRACON SMA TRACON (SMA)
Mon 08:04:46 PM 41.5189 -83.3256 199° South 378 435 24,100 150 Climbing FAA TRACON SMA TRACON (SMA)
Mon 08:05:06 PM 41.5189 -83.3256 108° East 378 435 24,100 2,438 Level FAA TRACON SMA TRACON (SMA)
Mon 08:05:50 PM 41.4042 -83.3958 205° Southwest 356 410 26,700 2,712 Climbing Cleveland Center
Mon 08:06:50 PM 41.3211 -83.4697 214° Southwest 362 417 28,800 1,438 Climbing Cleveland Center
Mon 08:07:51 PM 41.2336 -83.5431 212° Southwest 362 417 29,600 1,222 Climbing Cleveland Center
Mon 08:09:37 PM 41.0528 -83.6575 206° Southwest 414 476 32,200 1,473 Climbing Indianapolis Center
Mon 08:10:38 PM 40.9486 -83.7147 203° Southwest 407 468 33,700 878 Climbing Indianapolis Center
Mon 08:11:40 PM 40.8417 -83.7653 200° South 405 466 34,000 146 Climbing Indianapolis Center
Mon 08:12:41 PM 40.7317 -83.8156 199° South 411 473 34,000  Level Indianapolis Center
Mon 08:13:43 PM 40.6047 -83.8783 201° Southwest 414 476 34,000  Level Indianapolis Center
Mon 08:14:44 PM 40.4969 -83.9336 201° Southwest 414 476 34,000  Level Indianapolis Center
Mon 08:15:46 PM 40.3903 -83.9908 202° Southwest 412 474 34,000  Level Indianapolis Center
Mon 08:16:47 PM 40.2839 -84.0481 202° Southwest 412 474 34,000 -49 Level Indianapolis Center
Mon 08:17:49 PM 40.1958 -84.1367 218° Southwest 400 460 33,900  Descending Indianapolis Center
Mon 08:18:50 PM 40.1386 -84.2564 238° Southwest 390 449 34,000 49 Climbing Indianapolis Center
Mon 08:19:52 PM 40.0839 -84.3775 239° Southwest 386 444 34,000  Level Indianapolis Center
Mon 08:20:53 PM 40.0208 -84.4925 234° Southwest 388 447 34,000  Level Indianapolis Center
Mon 08:21:55 PM 39.9517 -84.6058 231° Southwest 395 455 34,000  Level Indianapolis Center
Mon 08:22:56 PM 39.8714 -84.7361 231° Southwest 393 452 34,000  Level Indianapolis Center
Mon 08:23:58 PM 39.8014 -84.8453 230° Southwest 391 450 34,000  Level Indianapolis Center
Mon 08:24:59 PM 39.7328 -84.9578 232° Southwest 393 452 34,000  Level Indianapolis Center
Mon 08:26:01 PM 39.6628 -85.0689 231° Southwest 394 453 34,000  Level Indianapolis Center
Mon 08:27:02 PM 39.5953 -85.1808 232° Southwest 392 451 34,000  Level Indianapolis Center
Mon 08:28:04 PM 39.5261 -85.2942 232° Southwest 395 455 34,000  Level Indianapolis Center
Mon 08:29:06 PM 39.4553 -85.4044 230° Southwest 396 456 34,000  Level Indianapolis Center
Mon 08:30:07 PM 39.3853 -85.5178 231° Southwest 398 458 34,000  Level Indianapolis Center
Mon 08:31:09 PM 39.3100 -85.6378 231° Southwest 398 458 34,000  Level Indianapolis Center
Mon 08:32:10 PM 39.2419 -85.7486 232° Southwest 394 453 34,000  Level Indianapolis Center
Mon 08:33:12 PM 39.1725 -85.8569 230° Southwest 391 450 34,000  Level Indianapolis Center
Mon 08:34:13 PM 39.1039 -85.9653 231° Southwest 389 448 34,000  Level Indianapolis Center
Mon 08:35:15 PM 39.0336 -86.0706 229° Southwest 386 444 34,000  Level Indianapolis Center
Mon 08:36:16 PM 38.9669 -86.1792 232° Southwest 386 444 34,000  Level Indianapolis Center
Mon 08:37:18 PM 38.8992 -86.2856 231° Southwest 384 442 34,000  Level Indianapolis Center
Mon 08:38:19 PM 38.8172 -86.4131 231° Southwest 385 443 34,000  Level Indianapolis Center
Mon 08:39:21 PM 38.7492 -86.5181 230° Southwest 383 441 34,000  Level Indianapolis Center
Mon 08:40:22 PM 38.6817 -86.6236 231° Southwest 382 440 34,000  Level Indianapolis Center
Mon 08:41:24 PM 38.6128 -86.7289 230° Southwest 384 442 34,000  Level Indianapolis Center
Mon 08:42:25 PM 38.5422 -86.8319 229° Southwest 385 443 34,000  Level Indianapolis Center
Mon 08:43:27 PM 38.4725 -86.9364 230° Southwest 385 443 34,000  Level Indianapolis Center
Mon 08:44:28 PM 38.4003 -87.0456 230° Southwest 388 447 34,000  Level Indianapolis Center
Mon 08:45:30 PM 38.3314 -87.1542 231° Southwest 389 448 34,000  Level Indianapolis Center
Mon 08:46:31 PM 38.2564 -87.2711 231° Southwest 391 450 34,000  Level Indianapolis Center
Mon 08:47:33 PM 38.1881 -87.3744 230° Southwest 387 445 34,000  Level Indianapolis Center
Mon 08:48:34 PM 38.1189 -87.4783 230° Southwest 384 442 34,000  Level Indianapolis Center
Mon 08:49:36 PM 38.0492 -87.5822 230° Southwest 385 443 34,000  Level Indianapolis Center
Mon 08:50:37 PM 37.9794 -87.6869 230° Southwest 386 444 34,000  Level Indianapolis Center
Mon 08:51:39 PM 37.9092 -87.7906 229° Southwest 387 445 34,000  Level Indianapolis Center
Mon 08:52:40 PM 37.8019 -87.8358 198° South 404 465 34,000  Level Indianapolis Center
Mon 08:53:41 PM 37.6842 -87.8947 202° Southwest 405 466 34,000  Level Indianapolis Center
Mon 08:54:30 PM 37.6022 -87.9517 209° Southwest 402 463 34,000  Level Memphis Center
Mon 08:55:30 PM 37.5056 -88.0172 208° Southwest 402 463 34,000  Level Memphis Center
Mon 08:56:30 PM 37.4089 -88.0828 208° Southwest 402 463 34,000  Level Memphis Center
Mon 08:57:30 PM 37.3100 -88.1481 208° Southwest 402 463 34,000  Level Memphis Center
Mon 08:58:30 PM 37.2069 -88.2083 205° Southwest 402 463 34,000  Level Memphis Center
Mon 08:59:30 PM 37.1100 -88.2656 205° Southwest 402 463 34,000  Level Memphis Center
Mon 09:00:30 PM 37.0089 -88.3228 204° Southwest 402 463 34,000  Level Memphis Center
Mon 09:01:30 PM 36.9056 -88.3825 205° Southwest 402 463 34,000  Level Memphis Center
Mon 09:02:30 PM 36.8067 -88.4444 207° Southwest 402 463 34,000  Level Memphis Center
Mon 09:03:30 PM 36.7094 -88.5011 205° Southwest 397 457 34,000  Level Memphis Center
Mon 09:04:30 PM 36.6061 -88.5606 205° Southwest 397 457 34,000  Level Memphis Center
Mon 09:05:30 PM 36.5069 -88.6169 205° Southwest 397 457 34,000 -700 Level Memphis Center
Mon 09:06:30 PM 36.4056 -88.6758 205° Southwest 397 457 32,600 -2,150 Descending Memphis Center
Mon 09:07:30 PM 36.3064 -88.7369 206° Southwest 397 457 29,700 -3,300 Descending Memphis Center
Mon 09:08:30 PM 36.2092 -88.7931 205° Southwest 397 457 26,000 -3,200 Descending Memphis Center
Mon 09:09:30 PM 36.1119 -88.8489 205° Southwest 397 457 23,300 -1,700 Descending Memphis Center
Mon 09:10:30 PM 36.0292 -88.8992 206° Southwest 372 428 22,600 -800 Descending Memphis Center
Mon 09:11:30 PM 35.9525 -88.9467 207° Southwest 335 386 21,700 -1,050 Descending Memphis Center
Mon 09:12:30 PM 35.8778 -88.9864 203° Southwest 324 373 20,500 -1,900 Descending Memphis Center
Mon 09:13:30 PM 35.7992 -89.0311 205° Southwest 319 367 17,900 -3,000 Descending Memphis Center
Mon 09:14:30 PM 35.7183 -89.0761 204° Southwest 319 367 14,500 -2,950 Descending Memphis Center
Mon 09:15:30 PM 35.6647 -89.1381 223° Southwest 297 342 12,000 -2,000 Descending Memphis Center
Mon 09:16:30 PM 35.6194 -89.2103 232° Southwest 268 308 10,500 -950 Descending Memphis Center
Mon 09:17:30 PM 35.5678 -89.2800 228° Southwest 268 308 10,100 -200 Descending Memphis Center
Mon 09:18:30 PM 35.5183 -89.3519 230° Southwest 276 318 10,100 -650 Level Memphis Center
Mon 09:19:30 PM 35.4772 -89.4289 237° Southwest 276 318 8,800 -1,450 Descending Memphis Center
Mon 09:20:30 PM 35.4361 -89.5008 235° Southwest 266 306 7,200 -1,550 Descending Memphis Center
Mon 09:21:30 PM 35.4011 -89.5725 239° Southwest 253 291 5,700 -1,350 Descending Memphis Center
Mon 09:22:30 PM 35.3661 -89.6442 239° Southwest 253 291 4,500 -800 Descending Memphis Center
Mon 09:23:30 PM 35.3331 -89.7131 240° Southwest 238 274 4,100 -200 Descending Memphis Center
Mon 09:24:30 PM 35.3000 -89.7847 241° Southwest 238 274 4,100 -50 Level Memphis Center
Mon 09:25:30 PM 35.2711 -89.8536 243° Southwest 243 280 4,000 -400 Descending Memphis Center
Mon 09:26:30 PM 35.2444 -89.9147 242° Southwest 219 252 3,300 -700 Descending Memphis Center
Mon 09:27:30 PM 35.2131 -89.9453 218° Southwest 173 199 2,600 -550 Descending Memphis Center
Mon 09:28:30 PM 35.1800 -89.9683 210° Southwest 148 170 2,200 -250 Descending Memphis Center
Mon 09:29:30 PM 35.1486 -89.9786 195° South 126 145 2,100 -341 Descending Memphis Center
Mon 09:30:33 PM 35.1167 -89.9667 163° South 118 136 1,500 -585 Descending KMEM
Mon 09:31:33 PM 35.0833 -89.9667 180° South 118 136 900 -600 Descending KMEM
Mon 09:33:00 PM 35.0424 -89.9767 189° South  Level Estimated
Mon 09:40:00 PM 35.0424 -89.9767 189° South  Level Estimated
Mon 09:41:00 PM 35.0424 -89.9767 189° South  Level Estimated
Mon 09:42:00 PM 35.0424 -89.9767 189° South  Level Estimated
Mon 09:43:00 PM 35.0424 -89.9767 189° South  Level Estimated
Mon 09:44:00 PM 35.0424 -89.9767 189° South  Level Estimated
Mon 09:45:00 PM 35.0424 -89.9767 189° South  Level Estimated
Mon 09:46:00 PM 35.0424 -89.9767 189° South  Level Estimated
Mon 09:47:00 PM 35.0424 -89.9767 189° South  Level Estimated

Login

Don't have an account? Register now (free) for customized features, flight alerts, and more!